Alton, IL (62002)

2:19 AM CST on March 06, 2015 (GMT -0600)
KILALTON7 | Change Station
CLOSE
Current Station
Personal Weather Station
Location: Alton, IL
Elevation: 489 ft
Nearby Weather Stations

Elev 489 ft 38.91 °N, 90.14 °W | Updated 1 minute ago

Clear
Clear
5.4 °F
Feels Like 5 °F
N
0.0
Wind Variable Wind from NW
Gusts 0.0 mph

Today
High -- | Low -- °F
--% Chance of Precip.
Yesterday
High -- | Low -- °F
Precip. -- in
6:26 AM 5:58 PM
Full, 100% visible
Pressure 30.57 in
Visibility 10.0 miles
Clouds Clear
Windchill 5 °F
Dew Point -5 °F
Humidity 61%
Rainfall in
Snow Depth Not available.
UV 0 out of 12
Pollen 2.50 out of 12
Air Quality Not available.
Flu Activity Not available.
METAR KALN 060755Z AUTO 12003KT 10SM CLR M15/M17 A3057 RMK AO2 T11501173 TSNO

More Conditions Fewer Conditions

Pressure 30.57 in
Visibility 10.0 miles
Clouds Clear
Windchill 5 °F
Dew Point -5 °F
Humidity 61%
Rainfall in
Snow Depth Not available.
UV 0 out of 12
Pollen 2.50 out of 12
Air Quality Not available.
Flu Activity Not available.
METAR KALN 060755Z AUTO 12003KT 10SM CLR M15/M17 A3057 RMK AO2 T11501173 TSNO

More Conditions Fewer Conditions

10-Day Weather Forecast

Almanac

Astronomy

Mar. 06, 2015 Rise Set
Actual Time
Civil Twilight
Nautical Twilight
Astronomical Twilight
Moon
Length of Visible Light
Length of Day
Tomorrow will be .
, % of the Moon is Illuminated

Today's Extremes

State Highs State Lows

Community

WunderPhotos

Upload Photos

1,803,204 photos uploaded!

WunderBlogs® & News

Nearby

Air Quality

  Air Quality AQ Index Pollutant
Not available.

Snow Depth

Station Depth Elevation

Earthquake Activity

City Distance Mag. Time & Date
Minimum magnitude displayed is 2.5.

Coastal Water Temperatures

Place Temperature

Nearby Weather Stations